Climatologie pour Saint-Brevin les Pins
Jour • Résumé pour décembre 8, 2017 Système :  Métrique    Anglais   Mixte
« - 1 jour
+ 1 jour »
Jour Semaine Mois Année Personnalisé
  Maximum : Minimum : Moyenne :
Température sous abri : 10.2 °C 2.2 °C 6.4 °C
Point de rosée : 6.3 °C 0.7 °C 3.5 °C
Humidité : 95 % 62 % 82 %
Vitesse du vent : 25.7 km/h 0.0 km/h 8 km/h
Rafale : 32.2 km/h - -
Direction :- - NW
Pression : 1026.3 hPa 1020.5 hPa -
Précipitations : 0.0 mm    
Historical Graphs
 
 
Tableau de données pour décembre 8, 2017
Heure Tempé Pt rosée Pression Vent Vitesse Rafale Humidité Taux pluie (/hr) Soleil
00:10 6.7 °C 5.6 °C 1020.5 hPa Calm   11.3 km/h 93 % 0.0 mm 0 W/m2
00:15 6.5 °C 5.4 °C 1020.5 hPa WNW 3.2 km/h 11.3 km/h 93 % 0.0 mm 0 W/m2
00:20 6.4 °C 5.5 °C 1020.5 hPa NW 4.8 km/h 11.3 km/h 94 % 0.0 mm 0 W/m2
00:25 6.6 °C 5.7 °C 1020.9 hPa NW 8.0 km/h 16.1 km/h 94 % 0.0 mm 0 W/m2
00:30 6.9 °C 6.1 °C 1020.9 hPa NW 4.8 km/h 16.1 km/h 95 % 0.0 mm 0 W/m2
00:35 7.1 °C 6.3 °C 1020.9 hPa NW 8.0 km/h 14.5 km/h 95 % 0.0 mm 0 W/m2
00:40 7.1 °C 6.2 °C 1020.9 hPa WNW 3.2 km/h 14.5 km/h 94 % 0.0 mm 0 W/m2
00:45 7.0 °C 6.1 °C 1020.9 hPa WNW 6.4 km/h 14.5 km/h 94 % 0.0 mm 0 W/m2
00:50 6.8 °C 5.7 °C 1020.9 hPa NNW 3.2 km/h 9.7 km/h 93 % 0.0 mm 0 W/m2
01:00 6.6 °C 5.7 °C 1020.9 hPa Calm   11.3 km/h 94 % 0.0 mm 0 W/m2
01:05 6.6 °C 5.7 °C 1020.9 hPa NW 3.2 km/h 12.9 km/h 94 % 0.0 mm 0 W/m2
01:20 6.6 °C 5.7 °C 1020.9 hPa NNW 9.7 km/h 14.5 km/h 94 % 0.0 mm 0 W/m2
01:25 6.6 °C 5.7 °C 1020.9 hPa WNW 9.7 km/h 14.5 km/h 94 % 0.0 mm 0 W/m2
01:30 6.7 °C 5.8 °C 1020.9 hPa WNW 1.6 km/h 14.5 km/h 94 % 0.0 mm 0 W/m2
01:35 6.7 °C 5.8 °C 1020.9 hPa NW 6.4 km/h 12.9 km/h 94 % 0.0 mm 0 W/m2
01:40 6.6 °C 5.7 °C 1020.5 hPa WNW 4.8 km/h 12.9 km/h 94 % 0.0 mm 0 W/m2
01:45 6.6 °C 5.5 °C 1020.9 hPa NW 6.4 km/h 12.9 km/h 93 % 0.0 mm 0 W/m2
01:55 6.4 °C 5.4 °C 1020.9 hPa WNW 11.3 km/h 11.3 km/h 93 % 0.0 mm 0 W/m2
02:00 6.4 °C 5.4 °C 1020.9 hPa WNW 6.4 km/h 12.9 km/h 93 % 0.0 mm 0 W/m2
02:05 6.4 °C 5.4 °C 1020.9 hPa WNW 3.2 km/h 12.9 km/h 93 % 0.0 mm 0 W/m2
02:10 6.4 °C 5.4 °C 1021.2 hPa NW 4.8 km/h 12.9 km/h 93 % 0.0 mm 0 W/m2
02:15 6.5 °C 5.4 °C 1021.2 hPa NW 11.3 km/h 12.9 km/h 93 % 0.0 mm 0 W/m2
02:20 6.6 °C 5.5 °C 1021.2 hPa NW 9.7 km/h 12.9 km/h 93 % 0.0 mm 0 W/m2
02:25 6.8 °C 5.9 °C 1020.9 hPa WNW 6.4 km/h 14.5 km/h 94 % 0.0 mm 0 W/m2
02:35 7.2 °C 6.1 °C 1021.2 hPa NW 6.4 km/h 22.5 km/h 93 % 0.0 mm 0 W/m2
02:40 7.3 °C 6.1 °C 1021.2 hPa NW 8.0 km/h 17.7 km/h 92 % 0.0 mm 0 W/m2
02:45 7.4 °C 6.2 °C 1021.2 hPa WNW 6.4 km/h 17.7 km/h 92 % 0.0 mm 0 W/m2
02:50 7.5 °C 6.3 °C 1021.2 hPa NNW 6.4 km/h 14.5 km/h 92 % 0.0 mm 0 W/m2
02:55 7.6 °C 6.2 °C 1021.6 hPa NNW 11.3 km/h 14.5 km/h 91 % 0.0 mm 0 W/m2
03:00 7.6 °C 6.2 °C 1021.6 hPa WNW 11.3 km/h 12.9 km/h 91 % 0.0 mm 0 W/m2
03:05 7.5 °C 6.0 °C 1021.6 hPa NW 9.7 km/h 16.1 km/h 90 % 0.0 mm 0 W/m2
03:10 7.4 °C 5.9 °C 1021.6 hPa West 4.8 km/h 17.7 km/h 90 % 0.0 mm 0 W/m2
03:15 7.4 °C 5.7 °C 1021.6 hPa WNW 3.2 km/h 17.7 km/h 89 % 0.0 mm 0 W/m2
03:20 7.3 °C 5.6 °C 1021.6 hPa WNW 4.8 km/h 16.1 km/h 89 % 0.0 mm 0 W/m2
03:25 7.2 °C 5.4 °C 1021.6 hPa West 6.4 km/h 16.1 km/h 88 % 0.0 mm 0 W/m2
03:35 7.1 °C 5.0 °C 1021.6 hPa WNW 4.8 km/h 16.1 km/h 87 % 0.0 mm 0 W/m2
03:50 6.9 °C 4.7 °C 1021.6 hPa NW 8.0 km/h 14.5 km/h 86 % 0.0 mm 0 W/m2
03:55 6.8 °C 4.7 °C 1021.6 hPa NW 6.4 km/h 12.9 km/h 86 % 0.0 mm 0 W/m2
04:00 6.8 °C 4.6 °C 1021.6 hPa NW 4.8 km/h 16.1 km/h 86 % 0.0 mm 0 W/m2
04:05 6.7 °C 4.5 °C 1021.6 hPa WNW 1.6 km/h 16.1 km/h 86 % 0.0 mm 0 W/m2
04:10 6.7 °C 4.5 °C 1021.6 hPa WNW 11.3 km/h 14.5 km/h 86 % 0.0 mm 0 W/m2
04:20 6.6 °C 4.4 °C 1021.6 hPa NW 4.8 km/h 16.1 km/h 86 % 0.0 mm 0 W/m2
04:30 6.4 °C 4.4 °C 1021.6 hPa NW 8.0 km/h 16.1 km/h 87 % 0.0 mm 0 W/m2
04:40 6.3 °C 4.3 °C 1021.6 hPa WNW 6.4 km/h 16.1 km/h 87 % 0.0 mm 0 W/m2
04:45 6.3 °C 4.5 °C 1021.6 hPa NNW 8.0 km/h 14.5 km/h 88 % 0.0 mm 0 W/m2
04:50 6.3 °C 4.5 °C 1021.6 hPa WNW 8.0 km/h 14.5 km/h 88 % 0.0 mm 0 W/m2
04:55 6.3 °C 4.5 °C 1021.6 hPa NNW 12.9 km/h 16.1 km/h 88 % 0.0 mm 0 W/m2
05:05 6.3 °C 4.4 °C 1021.6 hPa NW 9.7 km/h 16.1 km/h 88 % 0.0 mm 0 W/m2
05:10 6.3 °C 4.4 °C 1021.9 hPa NW 4.8 km/h 14.5 km/h 88 % 0.0 mm 0 W/m2
05:15 6.3 °C 4.4 °C 1021.9 hPa WNW 3.2 km/h 12.9 km/h 88 % 0.0 mm 0 W/m2
05:25 6.2 °C 4.5 °C 1021.9 hPa WNW 3.2 km/h 17.7 km/h 89 % 0.0 mm 0 W/m2
05:35 6.3 °C 4.6 °C 1021.9 hPa NW 6.4 km/h 20.9 km/h 89 % 0.0 mm 0 W/m2
05:40 6.3 °C 4.6 °C 1021.9 hPa NW 6.4 km/h 19.3 km/h 89 % 0.0 mm 0 W/m2
05:50 6.3 °C 4.7 °C 1021.9 hPa NW 11.3 km/h 22.5 km/h 89 % 0.0 mm 0 W/m2
05:55 6.3 °C 4.5 °C 1021.9 hPa WNW 14.5 km/h 20.9 km/h 88 % 0.0 mm 0 W/m2
06:00 6.3 °C 4.5 °C 1022.2 hPa NNW 3.2 km/h 17.7 km/h 88 % 0.0 mm 0 W/m2
06:10 6.3 °C 4.4 °C 1022.2 hPa NW 9.7 km/h 14.5 km/h 88 % 0.0 mm 0 W/m2
06:15 6.3 °C 4.4 °C 1022.2 hPa WNW 9.7 km/h 14.5 km/h 88 % 0.0 mm 0 W/m2
06:20 6.2 °C 4.4 °C 1022.2 hPa NW 9.7 km/h 14.5 km/h 88 % 0.0 mm 0 W/m2
06:30 6.1 °C 4.2 °C 1022.2 hPa NW 8.0 km/h 14.5 km/h 88 % 0.0 mm 0 W/m2
06:35 6.0 °C 4.2 °C 1022.2 hPa NW 3.2 km/h 14.5 km/h 88 % 0.0 mm 0 W/m2
06:40 5.9 °C 4.1 °C 1022.2 hPa WNW 11.3 km/h 12.9 km/h 88 % 0.0 mm 0 W/m2
06:45 5.8 °C 4.0 °C 1022.2 hPa NW 3.2 km/h 12.9 km/h 88 % 0.0 mm 0 W/m2
06:55 5.7 °C 4.0 °C 1022.6 hPa WNW 4.8 km/h 11.3 km/h 89 % 0.0 mm 0 W/m2
07:00 5.6 °C 3.8 °C 1022.6 hPa NW 1.6 km/h 9.7 km/h 88 % 0.0 mm 0 W/m2
07:10 5.4 °C 3.6 °C 1022.9 hPa NW 4.8 km/h 11.3 km/h 88 % 0.0 mm 0 W/m2
07:15 5.3 °C 3.5 °C 1022.9 hPa NNW 4.8 km/h 11.3 km/h 88 % 0.0 mm 0 W/m2
07:25 5.1 °C 3.4 °C 1022.9 hPa NW 4.8 km/h 12.9 km/h 89 % 0.0 mm 0 W/m2
07:30 5.0 °C 3.3 °C 1022.9 hPa WNW 6.4 km/h 11.3 km/h 89 % 0.0 mm 0 W/m2
07:35 4.9 °C 3.4 °C 1022.9 hPa NW 8.0 km/h 11.3 km/h 90 % 0.0 mm 0 W/m2
07:40 4.9 °C 3.4 °C 1022.9 hPa Calm   11.3 km/h 90 % 0.0 mm 0 W/m2
07:45 4.8 °C 3.3 °C 1022.9 hPa WNW 6.4 km/h 11.3 km/h 90 % 0.0 mm 0 W/m2
07:55 4.7 °C 3.2 °C 1022.9 hPa NW 3.2 km/h 9.7 km/h 90 % 0.0 mm 0 W/m2
08:00 4.6 °C 3.1 °C 1022.9 hPa NW 4.8 km/h 9.7 km/h 90 % 0.0 mm 0 W/m2
08:05 4.6 °C 3.1 °C 1022.9 hPa NW 9.7 km/h 16.1 km/h 90 % 0.0 mm 0 W/m2
08:10 4.5 °C 3.2 °C 1023.2 hPa NW 4.8 km/h 16.1 km/h 91 % 0.0 mm 0 W/m2
08:25 4.5 °C 3.2 °C 1023.2 hPa NW 8.0 km/h 12.9 km/h 91 % 0.0 mm 0 W/m2
08:35 4.6 °C 3.4 °C 1023.2 hPa NW 9.7 km/h 16.1 km/h 92 % 0.0 mm 0 W/m2
08:40 4.7 °C 3.5 °C 1023.2 hPa WNW 4.8 km/h 11.3 km/h 92 % 0.0 mm 0 W/m2
08:45 4.7 °C 3.5 °C 1023.6 hPa West 6.4 km/h 19.3 km/h 92 % 0.0 mm 5 W/m2
08:50 4.8 °C 3.6 °C 1023.6 hPa NW 4.8 km/h 19.3 km/h 92 % 0.0 mm 7 W/m2
08:55 4.8 °C 3.6 °C 1023.6 hPa NW 8.0 km/h 17.7 km/h 92 % 0.0 mm 9 W/m2
09:00 4.9 °C 3.7 °C 1023.6 hPa NW 6.4 km/h 20.9 km/h 92 % 0.0 mm 12 W/m2
09:05 4.9 °C 3.8 °C 1023.6 hPa WNW 4.8 km/h 20.9 km/h 92 % 0.0 mm 14 W/m2
09:10 5.0 °C 3.8 °C 1023.9 hPa NW 4.8 km/h 14.5 km/h 92 % 0.0 mm 18 W/m2
09:15 5.1 °C 3.9 °C 1023.9 hPa WNW 6.4 km/h 14.5 km/h 92 % 0.0 mm 19 W/m2
09:20 5.1 °C 3.9 °C 1023.9 hPa NNW 6.4 km/h 14.5 km/h 92 % 0.0 mm 21 W/m2
09:25 5.2 °C 4.0 °C 1023.9 hPa NW 11.3 km/h 14.5 km/h 92 % 0.0 mm 25 W/m2
09:30 5.3 °C 3.9 °C 1023.9 hPa NNW 11.3 km/h 16.1 km/h 91 % 0.0 mm 26 W/m2
09:35 5.4 °C 4.0 °C 1023.9 hPa NW 8.0 km/h 17.7 km/h 91 % 0.0 mm 28 W/m2
09:45 5.5 °C 4.1 °C 1023.9 hPa NNW 16.1 km/h 16.1 km/h 91 % 0.0 mm 30 W/m2
09:50 5.6 °C 4.0 °C 1023.9 hPa WNW 8.0 km/h 16.1 km/h 90 % 0.0 mm 32 W/m2
10:00 5.8 °C 4.3 °C 1023.9 hPa NNW 8.0 km/h 19.3 km/h 90 % 0.0 mm 35 W/m2
10:05 5.9 °C 4.2 °C 1023.9 hPa NW 9.7 km/h 20.9 km/h 89 % 0.0 mm 37 W/m2
10:10 6.0 °C 4.2 °C 1024.3 hPa WNW 12.9 km/h 20.9 km/h 88 % 0.0 mm 40 W/m2
10:20 6.3 °C 4.3 °C 1024.3 hPa North 8.0 km/h 20.9 km/h 87 % 0.0 mm 142 W/m2
10:25 6.8 °C 4.4 °C 1024.6 hPa NNW 8.0 km/h 24.1 km/h 85 % 0.0 mm 153 W/m2
10:30 7.0 °C 4.3 °C 1024.9 hPa NW 12.9 km/h 24.1 km/h 83 % 0.0 mm 163 W/m2
10:35 7.2 °C 4.3 °C 1024.9 hPa WNW 3.2 km/h 24.1 km/h 82 % 0.0 mm 176 W/m2
10:40 7.3 °C 4.4 °C 1024.9 hPa NNW 11.3 km/h 24.1 km/h 82 % 0.0 mm 185 W/m2
10:50 7.6 °C 4.3 °C 1024.9 hPa WNW 8.0 km/h 25.7 km/h 80 % 0.0 mm 202 W/m2
10:55 7.7 °C 4.4 °C 1024.9 hPa WNW 3.2 km/h 25.7 km/h 80 % 0.0 mm 214 W/m2
11:00 7.8 °C 4.5 °C 1024.9 hPa NW 9.7 km/h 19.3 km/h 80 % 0.0 mm 225 W/m2
11:05 7.9 °C 4.5 °C 1024.9 hPa West 11.3 km/h 22.5 km/h 79 % 0.0 mm 236 W/m2
11:10 7.9 °C 4.5 °C 1024.9 hPa WNW 16.1 km/h 24.1 km/h 79 % 0.0 mm 239 W/m2
11:15 8.0 °C 4.2 °C 1024.9 hPa WNW 6.4 km/h 25.7 km/h 77 % 0.0 mm 248 W/m2
11:25 8.1 °C 4.3 °C 1024.9 hPa NW 19.3 km/h 27.4 km/h 77 % 0.0 mm 258 W/m2
11:35 8.3 °C 4.3 °C 1024.9 hPa WNW 12.9 km/h 24.1 km/h 76 % 0.0 mm 267 W/m2
11:40 8.3 °C 4.5 °C 1025.3 hPa NNW 11.3 km/h 24.1 km/h 77 % 0.0 mm 272 W/m2
11:45 8.4 °C 4.4 °C 1025.3 hPa WNW 8.0 km/h 20.9 km/h 76 % 0.0 mm 281 W/m2
11:55 8.3 °C 3.8 °C 1025.3 hPa WNW 12.9 km/h 29.0 km/h 73 % 0.0 mm 288 W/m2
12:00 8.4 °C 4.3 °C 1025.3 hPa North 11.3 km/h 29.0 km/h 75 % 0.0 mm 258 W/m2
12:15 8.4 °C 3.5 °C 1025.3 hPa NW 14.5 km/h 29.0 km/h 71 % 0.0 mm 304 W/m2
12:25 8.7 °C 3.9 °C 1025.3 hPa North 14.5 km/h 24.1 km/h 72 % 0.0 mm 311 W/m2
12:30 8.6 °C 3.8 °C 1024.9 hPa WNW 9.7 km/h 24.1 km/h 72 % 0.0 mm 318 W/m2
12:35 8.7 °C 3.8 °C 1024.9 hPa NW 8.0 km/h 22.5 km/h 71 % 0.0 mm 316 W/m2
12:40 8.8 °C 4.1 °C 1024.9 hPa WNW 11.3 km/h 22.5 km/h 72 % 0.0 mm 318 W/m2
12:45 9.0 °C 4.0 °C 1024.9 hPa NW 9.7 km/h 22.5 km/h 71 % 0.0 mm 323 W/m2
12:50 9.1 °C 3.7 °C 1024.9 hPa WNW 19.3 km/h 29.0 km/h 69 % 0.0 mm 323 W/m2
12:55 9.2 °C 3.8 °C 1024.9 hPa NNE 25.7 km/h 29.0 km/h 69 % 0.0 mm 323 W/m2
13:00 9.2 °C 3.8 °C 1024.9 hPa WNW 4.8 km/h 27.4 km/h 69 % 0.0 mm 322 W/m2
13:05 8.9 °C 3.3 °C 1024.9 hPa NNW 11.3 km/h 32.2 km/h 68 % 0.0 mm 323 W/m2
13:10 8.9 °C 3.6 °C 1024.9 hPa NW 12.9 km/h 32.2 km/h 69 % 0.0 mm 322 W/m2
13:15 9.1 °C 3.2 °C 1024.9 hPa NW 11.3 km/h 27.4 km/h 67 % 0.0 mm 320 W/m2
13:20 9.1 °C 3.2 °C 1024.6 hPa NW 6.4 km/h 27.4 km/h 67 % 0.0 mm 320 W/m2
13:25 9.2 °C 3.6 °C 1024.6 hPa WNW 4.8 km/h 24.1 km/h 68 % 0.0 mm 316 W/m2
13:35 9.3 °C 3.5 °C 1024.6 hPa NW 12.9 km/h 27.4 km/h 67 % 0.0 mm 311 W/m2
13:40 9.3 °C 3.7 °C 1024.6 hPa NW 12.9 km/h 27.4 km/h 68 % 0.0 mm 309 W/m2
13:45 9.2 °C 3.6 °C 1024.6 hPa WNW 6.4 km/h 25.7 km/h 68 % 0.0 mm 308 W/m2
13:50 9.2 °C 3.6 °C 1024.6 hPa NW 9.7 km/h 25.7 km/h 68 % 0.0 mm 299 W/m2
13:55 9.3 °C 4.1 °C 1024.6 hPa NW 12.9 km/h 24.1 km/h 70 % 0.0 mm 294 W/m2
14:00 9.4 °C 4.4 °C 1024.6 hPa NNW 17.7 km/h 25.7 km/h 71 % 0.0 mm 295 W/m2
14:05 9.2 °C 3.2 °C 1024.3 hPa NNW 14.5 km/h 25.7 km/h 66 % 0.0 mm 294 W/m2
14:10 9.1 °C 2.6 °C 1024.6 hPa NW 11.3 km/h 30.6 km/h 64 % 0.0 mm 283 W/m2
14:20 9.1 °C 2.4 °C 1024.6 hPa NW 14.5 km/h 27.4 km/h 63 % 0.0 mm 274 W/m2
14:30 9.1 °C 2.4 °C 1024.6 hPa West 14.5 km/h 25.7 km/h 63 % 0.0 mm 262 W/m2
14:35 9.1 °C 2.4 °C 1024.3 hPa NW 9.7 km/h 27.4 km/h 63 % 0.0 mm 262 W/m2
14:40 9.1 °C 2.4 °C 1024.3 hPa WNW 14.5 km/h 30.6 km/h 63 % 0.0 mm 339 W/m2
14:45 9.8 °C 3.5 °C 1024.6 hPa NNW 9.7 km/h 30.6 km/h 65 % 0.0 mm 357 W/m2
14:50 10.2 °C 3.2 °C 1024.6 hPa West 11.3 km/h 25.7 km/h 62 % 0.0 mm 334 W/m2
14:55 10.2 °C 3.2 °C 1024.6 hPa North 16.1 km/h 25.7 km/h 62 % 0.0 mm 338 W/m2
15:00 9.7 °C 3.6 °C 1024.6 hPa WNW 6.4 km/h 25.7 km/h 66 % 0.0 mm 185 W/m2
15:05 9.7 °C 3.4 °C 1024.6 hPa NNW 16.1 km/h 24.1 km/h 65 % 0.0 mm 311 W/m2
15:10 9.3 °C 2.9 °C 1024.6 hPa WNW 14.5 km/h 27.4 km/h 64 % 0.0 mm 255 W/m2
15:15 9.1 °C 2.4 °C 1024.3 hPa NW 14.5 km/h 27.4 km/h 63 % 0.0 mm 216 W/m2
15:20 8.5 °C 2.3 °C 1024.6 hPa WNW 8.0 km/h 24.1 km/h 65 % 0.0 mm 183 W/m2
15:25 8.4 °C 2.2 °C 1024.3 hPa NW 14.5 km/h 19.3 km/h 65 % 0.0 mm 169 W/m2
15:35 8.2 °C 2.2 °C 1024.6 hPa WNW 12.9 km/h 30.6 km/h 66 % 0.0 mm 91 W/m2
15:40 8.1 °C 2.1 °C 1024.6 hPa WNW 12.9 km/h 22.5 km/h 66 % 0.0 mm 74 W/m2
15:45 7.9 °C 2.2 °C 1024.6 hPa NNW 11.3 km/h 29.0 km/h 67 % 0.0 mm 51 W/m2
15:55 7.8 °C 1.9 °C 1024.6 hPa NW 11.3 km/h 25.7 km/h 66 % 0.0 mm 62 W/m2
16:00 7.8 °C 1.8 °C 1024.6 hPa North 14.5 km/h 30.6 km/h 66 % 0.0 mm 74 W/m2
16:10 7.6 °C 2.0 °C 1024.6 hPa NW 17.7 km/h 25.7 km/h 68 % 0.0 mm 37 W/m2
16:15 7.4 °C 2.1 °C 1024.6 hPa NW 6.4 km/h 25.7 km/h 69 % 0.0 mm 44 W/m2
16:20 7.3 °C 2.2 °C 1024.6 hPa NW 11.3 km/h 20.9 km/h 70 % 0.0 mm 30 W/m2
16:25 7.1 °C 2.2 °C 1024.6 hPa NNW 9.7 km/h 22.5 km/h 71 % 0.0 mm 28 W/m2
16:35 6.9 °C 2.0 °C 1024.6 hPa North 1.6 km/h 20.9 km/h 71 % 0.0 mm 19 W/m2
16:45 6.6 °C 2.1 °C 1024.6 hPa NW 11.3 km/h 20.9 km/h 73 % 0.0 mm 14 W/m2
16:50 6.7 °C 2.2 °C 1024.6 hPa NNW 8.0 km/h 19.3 km/h 73 % 0.0 mm 12 W/m2
16:55 6.6 °C 2.1 °C 1024.6 hPa WNW 9.7 km/h 17.7 km/h 73 % 0.0 mm 9 W/m2
17:05 6.7 °C 2.0 °C 1024.6 hPa West 8.0 km/h 19.3 km/h 72 % 0.0 mm 7 W/m2
17:20 6.5 °C 1.8 °C 1024.6 hPa NNW 6.4 km/h 14.5 km/h 72 % 0.0 mm 0 W/m2
17:25 6.3 °C 1.7 °C 1024.9 hPa WNW 4.8 km/h 16.1 km/h 72 % 0.0 mm 0 W/m2
17:30 6.3 °C 1.8 °C 1024.9 hPa WNW 9.7 km/h 17.7 km/h 73 % 0.0 mm 0 W/m2
17:35 6.3 °C 2.0 °C 1024.9 hPa NW 8.0 km/h 17.7 km/h 74 % 0.0 mm 0 W/m2
17:40 6.2 °C 1.9 °C 1024.9 hPa NW 8.0 km/h 16.1 km/h 74 % 0.0 mm 0 W/m2
17:50 6.3 °C 2.2 °C 1024.9 hPa WNW 4.8 km/h 14.5 km/h 75 % 0.0 mm 0 W/m2
18:00 6.5 °C 2.4 °C 1024.9 hPa NW 8.0 km/h 14.5 km/h 75 % 0.0 mm 0 W/m2
18:15 6.2 °C 2.5 °C 1024.9 hPa WNW 6.4 km/h 17.7 km/h 77 % 0.0 mm 0 W/m2
18:20 6.1 °C 2.3 °C 1024.9 hPa NW 6.4 km/h 20.9 km/h 77 % 0.0 mm 0 W/m2
18:25 6.0 °C 2.1 °C 1024.9 hPa WNW 6.4 km/h 20.9 km/h 76 % 0.0 mm 0 W/m2
18:30 5.8 °C 2.1 °C 1025.3 hPa NW 9.7 km/h 17.7 km/h 77 % 0.0 mm 0 W/m2
18:35 5.8 °C 2.1 °C 1025.3 hPa NW 6.4 km/h 20.9 km/h 77 % 0.0 mm 0 W/m2
18:40 5.6 °C 2.1 °C 1025.3 hPa NNW 8.0 km/h 20.9 km/h 78 % 0.0 mm 0 W/m2
18:45 5.7 °C 2.2 °C 1025.3 hPa NW 3.2 km/h 17.7 km/h 78 % 0.0 mm 0 W/m2
18:55 5.8 °C 2.1 °C 1025.3 hPa WNW 14.5 km/h 19.3 km/h 77 % 0.0 mm 0 W/m2
19:00 5.7 °C 2.0 °C 1025.3 hPa NNW 9.7 km/h 17.7 km/h 77 % 0.0 mm 0 W/m2
19:05 5.7 °C 1.8 °C 1025.6 hPa WNW 19.3 km/h 22.5 km/h 76 % 0.0 mm 0 W/m2
19:10 5.5 °C 1.6 °C 1025.3 hPa WNW 4.8 km/h 22.5 km/h 76 % 0.0 mm 0 W/m2
19:25 5.4 °C 1.7 °C 1025.3 hPa NW 9.7 km/h 16.1 km/h 77 % 0.0 mm 0 W/m2
19:35 5.5 °C 2.0 °C 1025.6 hPa WNW 11.3 km/h 19.3 km/h 78 % 0.0 mm 0 W/m2
19:45 5.6 °C 2.0 °C 1025.6 hPa NW 3.2 km/h 19.3 km/h 78 % 0.0 mm 0 W/m2
19:50 5.4 °C 1.9 °C 1025.6 hPa WNW 11.3 km/h 16.1 km/h 78 % 0.0 mm 0 W/m2
20:00 5.3 °C 1.8 °C 1026.0 hPa NW 6.4 km/h 17.7 km/h 78 % 0.0 mm 0 W/m2
20:05 5.3 °C 1.9 °C 1026.0 hPa NW 11.3 km/h 17.7 km/h 79 % 0.0 mm 0 W/m2
20:10 5.1 °C 1.8 °C 1026.0 hPa NW 6.4 km/h 17.7 km/h 79 % 0.0 mm 0 W/m2
20:20 5.0 °C 1.8 °C 1026.0 hPa NW 4.8 km/h 16.1 km/h 80 % 0.0 mm 0 W/m2
20:25 5.0 °C 2.0 °C 1026.0 hPa WNW 6.4 km/h 17.7 km/h 81 % 0.0 mm 0 W/m2
20:35 5.1 °C 1.9 °C 1026.0 hPa NW 6.4 km/h 14.5 km/h 80 % 0.0 mm 0 W/m2
20:40 4.6 °C 1.6 °C 1026.0 hPa NW 9.7 km/h 11.3 km/h 81 % 0.0 mm 0 W/m2
20:50 4.2 °C 1.6 °C 1025.6 hPa NW 4.8 km/h 16.1 km/h 83 % 0.0 mm 0 W/m2
21:05 4.3 °C 1.9 °C 1026.0 hPa Calm   17.7 km/h 84 % 0.0 mm 0 W/m2
21:15 4.2 °C 1.8 °C 1026.0 hPa West 6.4 km/h 16.1 km/h 84 % 0.0 mm 0 W/m2
21:20 4.1 °C 1.6 °C 1026.0 hPa NNW 8.0 km/h 16.1 km/h 84 % 0.0 mm 0 W/m2
21:25 4.1 °C 1.6 °C 1026.0 hPa NW 8.0 km/h 11.3 km/h 84 % 0.0 mm 0 W/m2
21:30 3.9 °C 1.5 °C 1026.0 hPa West 6.4 km/h 14.5 km/h 84 % 0.0 mm 0 W/m2
21:35 4.1 °C 1.8 °C 1026.0 hPa NW 4.8 km/h 14.5 km/h 85 % 0.0 mm 0 W/m2
21:40 4.1 °C 1.8 °C 1026.0 hPa NNW 8.0 km/h 12.9 km/h 85 % 0.0 mm 0 W/m2
21:45 4.2 °C 1.7 °C 1026.0 hPa NW 6.4 km/h 16.1 km/h 84 % 0.0 mm 0 W/m2
21:50 4.1 °C 1.6 °C 1026.0 hPa North 9.7 km/h 16.1 km/h 84 % 0.0 mm 0 W/m2
21:55 3.8 °C 1.5 °C 1026.0 hPa NW 1.6 km/h 12.9 km/h 85 % 0.0 mm 0 W/m2
22:00 3.7 °C 1.4 °C 1026.0 hPa NW 3.2 km/h 9.7 km/h 85 % 0.0 mm 0 W/m2
22:05 3.3 °C 1.2 °C 1026.0 hPa Calm   8.0 km/h 86 % 0.0 mm 0 W/m2
22:25 2.7 °C 1.0 °C 1026.0 hPa Calm   6.4 km/h 89 % 0.0 mm 0 W/m2
22:35 2.3 °C 0.7 °C 1026.0 hPa NW 3.2 km/h 8.0 km/h 89 % 0.0 mm 0 W/m2
22:45 2.2 °C 0.7 °C 1026.3 hPa NW 4.8 km/h 8.0 km/h 90 % 0.0 mm 0 W/m2
22:50 2.3 °C 1.0 °C 1026.3 hPa WNW 1.6 km/h 8.0 km/h 91 % 0.0 mm 0 W/m2
22:55 2.3 °C 1.0 °C 1026.3 hPa Calm   8.0 km/h 91 % 0.0 mm 0 W/m2
23:00 2.4 °C 1.1 °C 1026.0 hPa WNW 4.8 km/h 12.9 km/h 91 % 0.0 mm 0 W/m2
23:05 2.7 °C 1.2 °C 1026.0 hPa NW 6.4 km/h 12.9 km/h 90 % 0.0 mm 0 W/m2
23:10 2.9 °C 1.5 °C 1026.0 hPa NW 8.0 km/h 19.3 km/h 90 % 0.0 mm 0 W/m2
23:15 3.3 °C 1.6 °C 1026.0 hPa NNW 6.4 km/h 19.3 km/h 89 % 0.0 mm 0 W/m2
23:20 3.3 °C 1.5 °C 1026.0 hPa NNW 4.8 km/h 16.1 km/h 88 % 0.0 mm 0 W/m2
23:30 3.2 °C 1.2 °C 1026.0 hPa WNW 6.4 km/h 11.3 km/h 87 % 0.0 mm 0 W/m2
23:35 3.0 °C 1.0 °C 1026.0 hPa North 4.8 km/h 12.9 km/h 87 % 0.0 mm 0 W/m2
23:50 2.8 °C 1.0 °C 1026.0 hPa NNW 6.4 km/h 12.9 km/h 88 % 0.0 mm 0 W/m2
23:55 2.7 °C 0.9 °C 1026.0 hPa NW 4.8 km/h 12.9 km/h 88 % 0.0 mm 0 W/m2
Avec l'autorisation de Weather Underground - 1.5 mb